Time;durP1;ratioP1;P1;durP2;ratioP2;P2;SDS_P1;SDS_P2;PMS_P1;PMS_P2;Temp;Humidity;BMP_temperature;BMP_pressure;BME280_temperature;BME280_humidity;BME280_pressure;Samples;Min_cycle;Max_cycle;Signal;HPM_P1;HPM_P2
2022/06/17 00:01:38;;;;;;;12.13;7.35;;;14.90;99.90;;;;;;5082629;28;20127;-76
2022/06/17 00:04:04;;;;;;;12.70;7.65;;;14.90;99.90;;;;;;5066806;28;20168;-76
2022/06/17 00:06:39;;;;;;;13.48;7.95;;;14.80;99.90;;;;;;5067655;28;20040;-76
2022/06/17 00:09:06;;;;;;;12.55;8.05;;;14.80;99.90;;;;;;5078290;28;20048;-76
2022/06/17 00:11:35;;;;;;;14.43;8.70;;;14.80;99.90;;;;;;5062851;28;20119;-76
2022/06/17 00:14:02;;;;;;;14.23;8.40;;;14.70;99.90;;;;;;5065031;28;20103;-76
2022/06/17 00:16:28;;;;;;;13.55;9.25;;;14.70;99.90;;;;;;5067985;28;20073;-76
2022/06/17 00:18:54;;;;;;;12.60;8.20;;;14.60;99.90;;;;;;5043685;28;20083;-76
2022/06/17 00:21:24;;;;;;;14.27;9.20;;;14.70;99.90;;;;;;5081453;28;20488;-76
2022/06/17 00:23:50;;;;;;;15.85;9.45;;;14.60;99.90;;;;;;5066258;28;20079;-76
2022/06/17 00:26:17;;;;;;;12.55;8.25;;;14.70;99.90;;;;;;5082502;28;20139;-75
2022/06/17 00:28:43;;;;;;;12.55;8.25;;;14.70;99.90;;;;;;5066285;28;20036;-75
2022/06/17 00:31:08;;;;;;;14.98;8.70;;;14.70;99.90;;;;;;5081522;28;20043;-75
2022/06/17 00:33:34;;;;;;;13.25;8.38;;;14.70;99.90;;;;;;5065236;28;20521;-75
2022/06/17 00:36:00;;;;;;;16.33;9.23;;;14.70;99.90;;;;;;5066956;28;20116;-75
2022/06/17 00:38:29;;;;;;;14.38;8.50;;;14.60;99.90;;;;;;5062375;28;20132;-75
2022/06/17 00:40:58;;;;;;;12.48;7.82;;;14.60;99.90;;;;;;5084608;28;20448;-75
2022/06/17 00:43:26;;;;;;;13.35;8.60;;;14.60;99.90;;;;;;5081646;28;20072;-74
2022/06/17 00:46:05;;;;;;;12.90;8.10;;;14.50;99.90;;;;;;5082501;28;20044;-75
2022/06/17 00:48:38;;;;;;;11.95;7.57;;;14.50;99.90;;;;;;5066998;28;20063;-75
2022/06/17 00:51:19;;;;;;;13.73;7.90;;;14.50;99.90;;;;;;5084784;28;20082;-75
2022/06/17 00:53:53;;;;;;;11.75;7.53;;;14.40;99.90;;;;;;5067859;28;20054;-75
2022/06/17 00:56:24;;;;;;;11.45;7.05;;;14.40;99.90;;;;;;5069164;28;20094;-75
2022/06/17 00:58:58;;;;;;;11.75;7.38;;;14.40;99.90;;;;;;5086156;28;20502;-75
2022/06/17 01:01:25;;;;;;;12.50;8.18;;;14.30;99.90;;;;;;5086261;28;20116;-75
2022/06/17 01:03:59;;;;;;;14.98;9.10;;;14.30;99.90;;;;;;5085739;28;20051;-75
2022/06/17 01:06:30;;;;;;;16.08;9.25;;;14.40;99.90;;;;;;5086933;28;20060;-75
2022/06/17 01:11:56;;;;;;;14.80;8.95;;;14.50;99.90;;;;;;5083490;28;20032;-75
2022/06/17 01:14:23;;;;;;;15.25;9.05;;;14.50;99.90;;;;;;5053519;28;20110;-75
2022/06/17 01:16:50;;;;;;;16.05;9.15;;;14.50;99.90;;;;;;5087704;28;20040;-75
2022/06/17 01:19:39;;;;;;;14.82;9.18;;;14.50;99.90;;;;;;5084513;28;20466;-75
2022/06/17 01:22:27;;;;;;;13.70;8.18;;;14.50;99.90;;;;;;5086930;28;20498;-75
2022/06/17 01:25:01;;;;;;;13.25;8.60;;;14.60;99.90;;;;;;5085587;28;20564;-75
2022/06/17 01:27:31;;;;;;;13.90;8.70;;;14.50;99.90;;;;;;5080698;28;20119;-75
2022/06/17 01:29:57;;;;;;;14.15;7.95;;;14.50;99.90;;;;;;5087876;28;20036;-75
2022/06/17 01:32:28;;;;;;;14.00;8.48;;;14.50;99.90;;;;;;5069886;28;20035;-75
2022/06/17 01:34:54;;;;;;;13.77;9.02;;;14.50;99.90;;;;;;5086557;28;20032;-75
2022/06/17 01:37:20;;;;;;;19.77;8.68;;;14.50;99.90;;;;;;5069786;28;20062;-75
2022/06/17 01:39:48;;;;;;;13.93;9.00;;;14.50;99.90;;;;;;5068537;28;20465;-75
2022/06/17 01:42:13;;;;;;;13.57;8.50;;;14.40;99.90;;;;;;5067362;28;20185;-75
2022/06/17 01:44:41;;;;;;;13.57;8.63;;;14.50;99.90;;;;;;5051572;28;20481;-75
2022/06/17 01:47:19;;;;;;;12.98;8.25;;;14.40;99.90;;;;;;5067373;28;20045;-75
2022/06/17 01:49:56;;;;;;;12.85;8.48;;;14.40;99.90;;;;;;5086774;28;20065;-75
2022/06/17 01:52:43;;;;;;;13.80;8.48;;;14.40;99.90;;;;;;5059551;28;20032;-75
2022/06/17 01:55:23;;;;;;;12.57;8.35;;;14.30;99.90;;;;;;5071482;28;20028;-75
2022/06/17 01:58:11;;;;;;;13.30;8.50;;;14.30;99.90;;;;;;5086009;28;20515;-75
2022/06/17 02:00:37;;;;;;;13.23;9.00;;;14.20;99.90;;;;;;5068594;28;20039;-75
2022/06/17 02:03:15;;;;;;;15.82;9.43;;;14.10;99.90;;;;;;5071289;28;20036;-75
2022/06/17 02:05:45;;;;;;;16.67;8.63;;;14.10;99.90;;;;;;5084343;28;20044;-75
2022/06/17 02:08:11;;;;;;;15.50;9.07;;;14.10;99.90;;;;;;5058114;28;20045;-75
2022/06/17 02:10:40;;;;;;;14.23;8.85;;;14.10;99.90;;;;;;5036229;28;20410;-75
2022/06/17 02:13:08;;;;;;;13.63;8.80;;;14.10;99.90;;;;;;5085128;28;20032;-75
2022/06/17 02:15:35;;;;;;;13.82;9.20;;;14.00;99.90;;;;;;5086591;28;20043;-75
2022/06/17 02:18:04;;;;;;;12.15;8.80;;;14.00;99.90;;;;;;5086355;28;20044;-75
2022/06/17 02:20:30;;;;;;;14.07;9.02;;;14.00;99.90;;;;;;5068880;28;20127;-75
2022/06/17 02:22:57;;;;;;;12.88;8.45;;;14.00;99.90;;;;;;5027497;28;20147;-75
2022/06/17 02:25:27;;;;;;;14.60;9.13;;;14.10;99.90;;;;;;5070184;28;20244;-75
2022/06/17 02:27:56;;;;;;;14.35;9.18;;;13.90;99.90;;;;;;5085592;28;20052;-75
2022/06/17 02:30:24;;;;;;;13.98;8.75;;;13.80;99.90;;;;;;5084978;28;20035;-75
2022/06/17 02:32:52;;;;;;;14.40;9.10;;;13.80;99.90;;;;;;5083877;28;20032;-75
2022/06/17 02:35:45;;;;;;;13.23;8.75;;;13.70;99.90;;;;;;5088488;28;20028;-75
2022/06/17 02:38:25;;;;;;;13.80;9.18;;;13.70;99.90;;;;;;5084754;28;20043;-75
2022/06/17 02:41:00;;;;;;;16.73;9.25;;;13.60;99.90;;;;;;5083089;28;21319;-74
2022/06/17 02:43:29;;;;;;;15.30;9.85;;;13.60;99.90;;;;;;5084161;28;20398;-75
2022/06/17 02:46:03;;;;;;;14.13;9.77;;;13.60;99.90;;;;;;5084764;28;20514;-75
2022/06/17 02:48:36;;;;;;;17.92;9.52;;;13.50;99.90;;;;;;5083904;28;20044;-75
2022/06/17 02:51:02;;;;;;;13.75;9.40;;;13.50;99.90;;;;;;5085027;28;20039;-75
2022/06/17 02:53:37;;;;;;;15.80;9.63;;;13.50;99.90;;;;;;5080486;28;20057;-75
2022/06/17 02:56:07;;;;;;;13.93;9.85;;;13.50;99.90;;;;;;5059421;28;20049;-75
2022/06/17 02:59:03;;;;;;;14.18;9.88;;;13.50;99.90;;;;;;5062854;28;20047;-75
2022/06/17 03:01:32;;;;;;;14.13;9.77;;;13.50;99.90;;;;;;5082626;28;20048;-75
2022/06/17 03:03:59;;;;;;;14.82;10.23;;;13.50;99.90;;;;;;5087290;28;20063;-75
2022/06/17 03:06:45;;;;;;;16.08;10.57;;;13.50;99.90;;;;;;5053506;28;20137;-75
2022/06/17 03:09:32;;;;;;;18.00;10.10;;;13.50;99.90;;;;;;5078210;28;20117;-75
2022/06/17 03:12:34;;;;;;;16.05;9.80;;;13.50;99.90;;;;;;5059224;28;20068;-75
2022/06/17 03:15:03;;;;;;;16.17;10.30;;;13.50;99.90;;;;;;5075908;28;20143;-75
2022/06/17 03:17:30;;;;;;;16.48;10.73;;;13.50;99.90;;;;;;5063317;28;20044;-75
2022/06/17 03:20:00;;;;;;;14.85;10.48;;;13.50;99.90;;;;;;5081361;28;20050;-75
2022/06/17 03:22:26;;;;;;;15.57;9.95;;;13.50;99.90;;;;;;5083895;28;20094;-75
2022/06/17 03:25:03;;;;;;;15.85;9.98;;;13.40;99.90;;;;;;5069170;28;20043;-75
2022/06/17 03:27:43;;;;;;;14.32;9.95;;;13.50;99.90;;;;;;5078364;28;20498;-75
2022/06/17 03:30:12;;;;;;;14.13;10.13;;;13.50;99.90;;;;;;5085757;28;20121;-75
2022/06/17 03:32:41;;;;;;;16.17;9.82;;;13.60;99.90;;;;;;5085935;28;20113;-75
2022/06/17 03:35:20;;;;;;;15.18;10.18;;;13.60;99.90;;;;;;5060857;28;20097;-75
2022/06/17 03:38:00;;;;;;;15.48;9.65;;;13.70;99.90;;;;;;5086403;28;20052;-75
2022/06/17 03:40:34;;;;;;;17.48;9.30;;;13.80;99.90;;;;;;5067883;28;20063;-75
2022/06/17 03:43:24;;;;;;;14.38;8.50;;;13.90;99.90;;;;;;5068606;28;20211;-75
2022/06/17 03:45:59;;;;;;;14.65;8.40;;;14.00;99.90;;;;;;5079735;28;20043;-75
2022/06/17 03:48:52;;;;;;;14.35;7.93;;;14.00;99.90;;;;;;5081091;28;20113;-75
2022/06/17 03:51:19;;;;;;;;;;;14.10;99.90;;;;;;5053610;28;20641;-75
2022/06/17 03:53:46;;;;;;;14.25;7.47;;;14.20;99.90;;;;;;5065455;28;20158;-75
2022/06/17 03:56:23;;;;;;;12.50;7.07;;;14.20;99.90;;;;;;5060075;28;20436;-74
2022/06/17 03:58:50;;;;;;;11.18;6.95;;;14.30;99.90;;;;;;5081405;28;20531;-75
2022/06/17 04:01:27;;;;;;;12.73;7.20;;;14.30;99.90;;;;;;5061259;28;20040;-75
2022/06/17 04:04:00;;;;;;;12.60;6.82;;;14.40;99.90;;;;;;5079914;28;20068;-75
2022/06/17 04:06:29;;;;;;;10.75;6.53;;;14.50;99.90;;;;;;5086627;28;20063;-74
2022/06/17 04:08:58;;;;;;;12.68;7.25;;;14.60;99.90;;;;;;5087451;28;20411;-75
2022/06/17 04:11:29;;;;;;;11.77;6.80;;;14.70;99.90;;;;;;5085992;28;20035;-75
2022/06/17 04:13:59;;;;;;;10.85;6.38;;;14.80;99.90;;;;;;5082579;28;20437;-75
2022/06/17 04:16:55;;;;;;;12.13;6.30;;;14.90;99.90;;;;;;5063954;28;20513;-75
2022/06/17 04:19:23;;;;;;;12.02;6.20;;;15.00;99.90;;;;;;5063405;28;20064;-75
2022/06/17 04:21:51;;;;;;;10.75;6.03;;;15.20;99.90;;;;;;5085125;28;20040;-75
2022/06/17 04:24:29;;;;;;;11.18;6.70;;;15.20;99.90;;;;;;5056394;28;20111;-75
2022/06/17 04:27:07;;;;;;;11.20;5.72;;;15.30;99.90;;;;;;5062463;28;20486;-75
2022/06/17 04:29:42;;;;;;;11.38;5.88;;;15.30;99.90;;;;;;5067362;28;20044;-75
2022/06/17 04:32:21;;;;;;;11.95;5.95;;;15.40;99.90;;;;;;5069859;28;20036;-74
2022/06/17 04:34:46;;;;;;;11.05;5.20;;;15.50;99.90;;;;;;5066483;28;20032;-75
2022/06/17 04:37:20;;;;;;;11.05;5.38;;;15.50;99.90;;;;;;5066052;28;20528;-75
2022/06/17 04:39:54;;;;;;;9.98;5.68;;;15.60;99.90;;;;;;5066400;28;20658;-75
2022/06/17 04:42:33;;;;;;;11.52;6.47;;;15.60;99.90;;;;;;5064795;28;20486;-75
2022/06/17 04:44:59;;;;;;;9.85;4.93;;;15.60;99.90;;;;;;5081133;28;20055;-75
2022/06/17 04:47:25;;;;;;;13.00;6.32;;;15.70;99.90;;;;;;5066928;28;20559;-75
2022/06/17 04:49:58;;;;;;;10.40;5.03;;;15.70;99.90;;;;;;5067112;28;20043;-75
2022/06/17 04:52:29;;;;;;;10.00;5.50;;;15.80;99.90;;;;;;5077388;28;20032;-75
2022/06/17 04:54:58;;;;;;;15.82;5.47;;;15.80;99.90;;;;;;5080061;28;20075;-75
2022/06/17 04:57:24;;;;;;;9.30;5.05;;;15.80;99.90;;;;;;5061994;28;20044;-74
2022/06/17 04:59:50;;;;;;;11.13;5.00;;;15.80;99.90;;;;;;5059959;28;20478;-75
2022/06/17 05:02:23;;;;;;;10.48;5.07;;;15.90;99.90;;;;;;5062019;28;20040;-75
2022/06/17 05:04:52;;;;;;;11.23;5.30;;;15.90;99.90;;;;;;5062187;28;20052;-75
2022/06/17 05:07:19;;;;;;;9.77;5.25;;;15.90;99.90;;;;;;5078882;28;20052;-75
2022/06/17 05:09:46;;;;;;;10.57;5.38;;;15.90;99.90;;;;;;5081870;28;20047;-75
2022/06/17 05:12:39;;;;;;;11.18;5.43;;;15.90;99.90;;;;;;5063196;28;20040;-75
2022/06/17 05:15:17;;;;;;;10.98;5.38;;;15.90;99.90;;;;;;5082523;28;20167;-75
2022/06/17 05:17:44;;;;;;;10.35;5.20;;;15.90;99.90;;;;;;5075607;28;20079;-75
2022/06/17 05:20:20;;;;;;;10.57;5.32;;;15.80;99.90;;;;;;5068763;28;20085;-75
2022/06/17 05:22:59;;;;;;;11.77;4.95;;;15.90;99.90;;;;;;5076996;28;20091;-75
2022/06/17 05:25:29;;;;;;;10.10;4.90;;;15.80;99.90;;;;;;5084664;28;20095;-75
2022/06/17 05:27:55;;;;;;;11.30;5.18;;;15.90;99.90;;;;;;5058652;28;20550;-75
2022/06/17 05:30:22;;;;;;;9.35;4.97;;;15.90;99.90;;;;;;5060259;28;20115;-75
2022/06/17 05:32:51;;;;;;;10.82;5.03;;;15.90;99.90;;;;;;5083261;28;20089;-75
2022/06/17 05:35:19;;;;;;;10.07;4.90;;;15.90;99.90;;;;;;5070857;28;20040;-75
2022/06/17 05:37:45;;;;;;;11.15;4.75;;;15.90;99.90;;;;;;5067294;28;20044;-75
2022/06/17 05:40:12;;;;;;;10.75;4.80;;;16.00;99.90;;;;;;5084688;28;20119;-75
2022/06/17 05:42:39;;;;;;;9.25;4.80;;;16.00;99.90;;;;;;5068208;28;20040;-75
2022/06/17 05:45:05;;;;;;;9.23;4.20;;;16.10;99.90;;;;;;5073634;28;20040;-75
2022/06/17 05:47:31;;;;;;;9.85;4.30;;;16.10;99.90;;;;;;5090228;28;20043;-75
2022/06/17 05:49:57;;;;;;;13.50;4.75;;;16.20;99.90;;;;;;5071420;28;20036;-75
2022/06/17 05:52:23;;;;;;;10.80;4.50;;;16.30;99.90;;;;;;5056410;28;20125;-75
2022/06/17 05:54:49;;;;;;;12.15;4.80;;;16.40;99.90;;;;;;5073003;28;20520;-75
2022/06/17 05:57:16;;;;;;;8.40;4.35;;;16.50;99.90;;;;;;5090452;28;20036;-75
2022/06/17 05:59:42;;;;;;;9.93;4.43;;;16.50;99.90;;;;;;5055646;28;20152;-75
2022/06/17 06:02:11;;;;;;;9.82;4.70;;;16.60;99.90;;;;;;5067541;28;20421;-75
2022/06/17 06:04:37;;;;;;;11.18;4.45;;;16.70;99.90;;;;;;5078177;28;20036;-75
2022/06/17 06:07:03;;;;;;;9.70;4.43;;;16.70;99.90;;;;;;5057329;28;20052;-75
2022/06/17 06:09:29;;;;;;;9.80;4.43;;;16.80;99.90;;;;;;5089446;28;20449;-75
2022/06/17 06:11:54;;;;;;;10.23;4.63;;;16.80;99.90;;;;;;5061287;28;20032;-75
2022/06/17 06:14:20;;;;;;;10.50;4.60;;;16.90;99.90;;;;;;5059937;28;20491;-75
2022/06/17 06:16:46;;;;;;;9.93;4.68;;;16.90;99.90;;;;;;5060890;28;20143;-74
2022/06/17 06:19:11;;;;;;;8.70;4.20;;;17.00;99.90;;;;;;5070307;28;20047;-75
2022/06/17 06:21:37;;;;;;;10.57;4.70;;;16.90;99.90;;;;;;5083228;28;20048;-75
2022/06/17 06:24:03;;;;;;;9.48;4.70;;;17.00;99.90;;;;;;5049108;28;20040;-75
2022/06/17 06:26:29;;;;;;;11.32;4.32;;;17.00;99.90;;;;;;5052224;28;20046;-75
2022/06/17 06:28:56;;;;;;;10.15;4.70;;;17.00;99.90;;;;;;5050629;28;20063;-75
2022/06/17 06:31:34;;;;;;;11.15;4.68;;;17.10;99.90;;;;;;5071663;28;20036;-74
2022/06/17 06:34:00;;;;;;;11.45;4.53;;;17.10;99.90;;;;;;5077880;28;20029;-75
2022/06/17 06:36:26;;;;;;;10.57;4.95;;;17.10;99.90;;;;;;5071005;28;20091;-75
2022/06/17 06:38:51;;;;;;;11.45;5.10;;;17.20;99.90;;;;;;5063428;28;20490;-74
2022/06/17 06:41:20;;;;;;;10.90;4.70;;;17.20;99.90;;;;;;5080969;28;20036;-75
2022/06/17 06:43:46;;;;;;;13.20;4.80;;;17.30;99.90;;;;;;5069082;28;20044;-74
2022/06/17 06:46:15;;;;;;;11.18;5.07;;;17.40;99.90;;;;;;5086107;28;20517;-75
2022/06/17 06:48:41;;;;;;;10.55;4.78;;;17.50;99.90;;;;;;5081998;28;20036;-75
2022/06/17 06:51:07;;;;;;;10.73;5.15;;;17.50;99.90;;;;;;5088644;28;20434;-75
2022/06/17 06:53:33;;;;;;;10.60;4.60;;;17.60;99.90;;;;;;5084421;28;20130;-75
2022/06/17 06:55:59;;;;;;;12.38;4.85;;;17.70;99.90;;;;;;5037145;28;20047;-75
2022/06/17 06:58:26;;;;;;;11.27;5.15;;;17.90;99.90;;;;;;5085638;28;20059;-74
2022/06/17 07:00:54;;;;;;;10.30;4.78;;;17.90;99.90;;;;;;5069165;28;20161;-74
2022/06/17 07:03:21;;;;;;;10.93;5.00;;;18.00;99.90;;;;;;5068622;28;20043;-75
2022/06/17 07:05:56;;;;;;;10.55;5.18;;;18.00;99.90;;;;;;5058387;28;20044;-75
2022/06/17 07:08:25;;;;;;;10.18;4.75;;;18.10;99.90;;;;;;5068460;28;20040;-74
2022/06/17 07:10:52;;;;;;;11.65;4.80;;;18.30;99.90;;;;;;5080916;28;20445;-75
2022/06/17 07:13:19;;;;;;;10.80;4.65;;;18.30;99.90;;;;;;5065442;28;20254;-74
2022/06/17 07:15:46;;;;;;;9.88;4.50;;;18.40;99.90;;;;;;5058361;28;20131;-75
2022/06/17 07:18:21;;;;;;;10.90;4.78;;;18.50;99.90;;;;;;5086694;28;20079;-75
2022/06/17 07:20:57;;;;;;;9.65;4.70;;;18.60;99.90;;;;;;5086064;28;20509;-74
2022/06/17 07:23:29;;;;;;;9.65;4.50;;;18.50;99.90;;;;;;5087752;28;20036;-74
2022/06/17 07:25:58;;;;;;;10.13;4.50;;;18.60;99.90;;;;;;5086244;28;20115;-74
2022/06/17 07:28:25;;;;;;;9.77;4.50;;;18.60;99.90;;;;;;5080512;28;20036;-74
2022/06/17 07:30:53;;;;;;;11.23;4.88;;;18.60;99.90;;;;;;5063659;28;20044;-74
2022/06/17 07:33:21;;;;;;;9.68;4.30;;;18.70;99.90;;;;;;5061592;28;20036;-74
2022/06/17 07:35:48;;;;;;;11.77;4.60;;;18.80;99.90;;;;;;5056903;28;20390;-74
2022/06/17 07:41:05;;;;;;;10.68;4.40;;;18.90;99.90;;;;;;5071749;28;20055;-74
2022/06/17 07:43:31;;;;;;;12.63;4.57;;;19.00;99.90;;;;;;5064308;28;20200;-75
2022/06/17 07:45:57;;;;;;;8.80;4.13;;;19.10;99.90;;;;;;5085105;28;20077;-74
2022/06/17 07:48:23;;;;;;;9.13;4.30;;;19.30;99.90;;;;;;5067067;28;20044;-74
2022/06/17 07:50:49;;;;;;;11.52;5.03;;;19.40;99.90;;;;;;5059039;28;20044;-74
2022/06/17 07:53:16;;;;;;;9.38;4.22;;;19.60;99.90;;;;;;5084823;28;20183;-74
2022/06/17 07:55:44;;;;;;;10.65;4.78;;;19.80;99.90;;;;;;5087654;28;20459;-74
2022/06/17 07:58:12;;;;;;;10.13;4.43;;;20.00;99.90;;;;;;5068226;28;20039;-74
2022/06/17 08:00:42;;;;;;;9.02;4.22;;;20.20;99.90;;;;;;5085629;28;20035;-74
2022/06/17 08:03:09;;;;;;;11.43;4.25;;;20.40;99.90;;;;;;5068514;28;20048;-75
2022/06/17 08:05:35;;;;;;;10.98;4.28;;;20.50;99.90;;;;;;5050928;28;20032;-74
2022/06/17 08:08:04;;;;;;;9.63;4.30;;;20.60;99.90;;;;;;5079885;28;20058;-74
2022/06/17 08:10:33;;;;;;;10.15;3.92;;;20.60;99.90;;;;;;5077042;28;20075;-74
2022/06/17 08:12:59;;;;;;;9.73;4.32;;;20.70;99.90;;;;;;5072697;28;20055;-74
2022/06/17 08:15:26;;;;;;;8.77;4.20;;;20.80;99.90;;;;;;5039626;28;20068;-75
2022/06/17 08:17:52;;;;;;;9.15;4.35;;;21.00;99.90;;;;;;5061843;28;20045;-74
2022/06/17 08:20:23;;;;;;;9.75;4.13;;;21.10;99.90;;;;;;5052785;28;20042;-74
2022/06/17 08:22:49;;;;;;;9.98;4.10;;;21.10;99.90;;;;;;5070099;28;20136;-74
2022/06/17 08:25:16;;;;;;;9.25;4.20;;;21.10;99.90;;;;;;5066025;28;20035;-74
2022/06/17 08:27:48;;;;;;;8.32;4.20;;;21.20;99.90;;;;;;5068691;28;20036;-75
2022/06/17 08:30:16;;;;;;;11.55;4.18;;;21.30;99.90;;;;;;5066969;28;20458;-75
2022/06/17 08:32:55;;;;;;;9.98;4.78;;;21.40;99.90;;;;;;5083308;28;20129;-74
2022/06/17 08:35:36;;;;;;;10.88;4.50;;;21.50;99.90;;;;;;5044986;28;20543;-75
2022/06/17 08:38:25;;;;;;;9.68;4.00;;;21.70;99.90;;;;;;5073336;28;20410;-74
2022/06/17 08:40:54;;;;;;;8.85;3.85;;;21.70;99.90;;;;;;5054561;28;20040;-74
2022/06/17 08:43:46;;;;;;;9.43;3.88;;;21.80;99.90;;;;;;5052519;28;20079;-74
2022/06/17 08:46:50;;;;;;;8.85;3.83;;;21.80;99.90;;;;;;5059969;28;20040;-74
2022/06/17 08:49:46;;;;;;;9.05;3.72;;;21.90;99.90;;;;;;5068220;28;20052;-75
2022/06/17 08:52:37;;;;;;;10.85;4.10;;;21.90;99.90;;;;;;5068177;28;20043;-75
2022/06/17 08:55:19;;;;;;;9.63;3.90;;;21.90;99.90;;;;;;5087304;28;20035;-75
2022/06/17 08:57:49;;;;;;;;;;;22.00;99.90;;;;;;5063692;28;20441;-74
2022/06/17 09:00:30;;;;;;;8.68;3.92;;;21.90;99.90;;;;;;5086553;28;20015;-75
2022/06/17 09:03:17;;;;;;;11.65;3.92;;;21.90;99.90;;;;;;5074388;28;20044;-75
2022/06/17 09:06:16;;;;;;;8.88;3.78;;;21.90;99.90;;;;;;5077393;28;20462;-74
2022/06/17 09:09:00;;;;;;;11.52;4.13;;;21.90;99.90;;;;;;5073221;28;20426;-75
2022/06/17 09:12:11;;;;;;;8.95;3.45;;;21.80;99.90;;;;;;5081631;28;20476;-74
2022/06/17 09:15:09;;;;;;;8.65;3.80;;;21.80;99.90;;;;;;5083900;28;20514;-75
2022/06/17 09:17:49;;;;;;;9.00;3.90;;;21.70;99.90;;;;;;5086860;28;20044;-74
2022/06/17 09:20:22;;;;;;;8.52;4.22;;;21.70;99.90;;;;;;5071896;28;20036;-74
2022/06/17 09:22:56;;;;;;;10.13;4.15;;;21.80;99.90;;;;;;5078069;28;20123;-74
2022/06/17 09:25:33;;;;;;;8.38;4.00;;;21.80;99.90;;;;;;5089776;28;20413;-74
2022/06/17 09:27:59;;;;;;;11.88;4.57;;;21.90;99.90;;;;;;5084761;28;20044;-74
2022/06/17 09:30:38;;;;;;;9.13;3.88;;;21.90;99.90;;;;;;5085127;28;20096;-75
2022/06/17 09:33:39;;;;;;;11.45;4.03;;;22.00;99.90;;;;;;5061655;28;20083;-75
2022/06/17 09:36:16;;;;;;;11.02;4.30;;;22.10;99.90;;;;;;5071471;28;20035;-75
2022/06/17 09:38:54;;;;;;;9.73;4.50;;;22.10;99.90;;;;;;5086344;28;20518;-75
2022/06/17 09:41:33;;;;;;;9.73;4.03;;;22.10;99.90;;;;;;5075702;28;21359;-74
2022/06/17 09:44:14;;;;;;;10.43;4.22;;;22.20;99.90;;;;;;5080411;28;20040;-74
2022/06/17 09:46:48;;;;;;;11.32;4.38;;;22.30;99.90;;;;;;5063102;28;20046;-75
2022/06/17 09:49:20;;;;;;;10.05;4.13;;;22.60;99.90;;;;;;5066644;28;20036;-74
2022/06/17 09:52:07;;;;;;;10.45;4.60;;;22.90;99.90;;;;;;5082028;28;20697;-75
2022/06/17 09:54:39;;;;;;;10.20;4.88;;;23.20;99.90;;;;;;5061102;28;20546;-75
2022/06/17 09:57:11;;;;;;;10.23;4.68;;;23.30;99.90;;;;;;5085701;28;20397;-75
2022/06/17 09:59:50;;;;;;;11.43;5.22;;;23.30;99.90;;;;;;5069832;28;20117;-75
2022/06/17 10:02:22;;;;;;;11.20;4.70;;;23.30;99.90;;;;;;5070050;28;20069;-75
2022/06/17 10:04:50;;;;;;;11.50;4.80;;;23.30;99.90;;;;;;5069287;28;20043;-75
2022/06/17 10:07:22;;;;;;;9.60;4.72;;;23.20;99.90;;;;;;5069594;28;20098;-75
2022/06/17 10:10:05;;;;;;;10.00;4.68;;;23.10;99.90;;;;;;5076490;28;20048;-75
2022/06/17 10:12:56;;;;;;;11.57;4.90;;;23.10;99.90;;;;;;5079987;28;20043;-75
2022/06/17 10:19:13;;;;;;;9.75;4.82;;;22.90;99.90;;;;;;5026082;28;20037;-74
2022/06/17 10:22:02;;;;;;;10.77;4.43;;;22.80;99.90;;;;;;5073642;28;20328;-75
2022/06/17 10:24:46;;;;;;;12.27;4.82;;;22.70;99.90;;;;;;5043184;28;20509;-75
2022/06/17 10:27:27;;;;;;;12.45;5.18;;;22.70;99.90;;;;;;5053100;28;20170;-75
2022/06/17 10:30:02;;;;;;;11.23;4.80;;;22.70;99.90;;;;;;5076810;28;20372;-75
2022/06/17 10:32:31;;;;;;;10.20;4.07;;;22.70;99.90;;;;;;5086142;28;20078;-75
2022/06/17 10:35:01;;;;;;;12.05;4.50;;;22.70;99.90;;;;;;5078201;28;20516;-75
2022/06/17 10:37:30;;;;;;;10.18;4.68;;;22.70;99.90;;;;;;5071494;28;20570;-75
2022/06/17 10:39:57;;;;;;;9.15;4.22;;;22.70;99.90;;;;;;5073289;28;20040;-75
2022/06/17 10:42:25;;;;;;;10.98;3.80;;;22.70;99.90;;;;;;5073947;28;20383;-75
2022/06/17 10:44:59;;;;;;;10.20;3.70;;;22.80;99.90;;;;;;5058432;28;20043;-75
2022/06/17 10:47:42;;;;;;;9.52;3.85;;;22.80;99.90;;;;;;5068220;28;20363;-75
2022/06/17 10:50:29;;;;;;;10.05;3.90;;;22.90;99.90;;;;;;5076459;28;20071;-75
2022/06/17 10:54:05;;;;;;;9.23;3.50;;;23.00;99.90;;;;;;5061666;28;20036;-75
2022/06/17 10:56:33;;;;;;;9.88;3.55;;;23.10;99.90;;;;;;5009974;28;20029;-75
2022/06/17 10:59:04;;;;;;;9.52;3.80;;;23.30;99.90;;;;;;5065138;28;20254;-75
2022/06/17 11:01:45;;;;;;;10.18;3.40;;;23.40;99.90;;;;;;5079777;28;20123;-75
2022/06/17 11:04:18;;;;;;;8.32;3.38;;;23.60;99.90;;;;;;5079827;28;20736;-75
2022/06/17 11:07:12;;;;;;;8.98;3.40;;;24.40;99.90;;;;;;5078702;28;20147;-75
2022/06/17 11:09:40;;;;;;;9.23;3.20;;;23.80;99.90;;;;;;5068185;28;20044;-75
2022/06/17 11:12:19;;;;;;;10.57;3.58;;;23.80;99.90;;;;;;5080086;28;20047;-75
2022/06/17 11:14:45;;;;;;;11.32;3.53;;;24.00;99.90;;;;;;5083214;28;20273;-74
2022/06/17 11:17:29;;;;;;;11.82;3.80;;;23.90;99.90;;;;;;5061924;28;20039;-75
2022/06/17 11:20:01;;;;;;;9.20;3.67;;;24.10;99.90;;;;;;5053787;28;20391;-74
2022/06/17 11:22:35;;;;;;;9.25;3.50;;;24.40;99.90;;;;;;5071565;28;20044;-75
2022/06/17 11:25:34;;;;;;;12.25;3.38;;;24.40;99.90;;;;;;5082596;28;20105;-74
2022/06/17 11:28:37;;;;;;;8.38;3.22;;;24.50;99.90;;;;;;5057206;28;20079;-75
2022/06/17 11:31:06;;;;;;;9.38;3.30;;;24.70;99.90;;;;;;5031140;28;20048;-75
2022/06/17 11:33:41;;;;;;;9.77;3.83;;;25.30;99.90;;;;;;5072089;28;20082;-75
2022/06/17 11:36:21;;;;;;;8.27;3.00;;;25.10;99.90;;;;;;5062060;28;20040;-75
2022/06/17 11:38:47;;;;;;;11.35;3.55;;;25.30;99.90;;;;;;5085430;28;20375;-75
2022/06/17 11:41:41;;;;;;;8.65;3.45;;;25.30;99.90;;;;;;5082476;28;20035;-75
2022/06/17 11:44:17;;;;;;;9.95;3.55;;;25.40;99.90;;;;;;5077526;28;20097;-75
2022/06/17 11:46:55;;;;;;;12.85;3.67;;;25.50;99.90;;;;;;5069162;28;20040;-75
2022/06/17 11:49:22;;;;;;;9.43;3.42;;;25.70;99.90;;;;;;5082235;28;20094;-75
2022/06/17 11:51:50;;;;;;;10.05;3.60;;;25.70;99.90;;;;;;5066131;28;20024;-75
2022/06/17 11:54:32;;;;;;;8.75;3.60;;;25.70;99.90;;;;;;5065473;28;20110;-74
2022/06/17 11:56:59;;;;;;;10.98;3.70;;;25.70;99.90;;;;;;5080811;28;20044;-75
2022/06/17 11:59:32;;;;;;;9.35;3.90;;;25.80;99.90;;;;;;5047918;28;20059;-75
2022/06/17 12:01:57;;;;;;;9.13;3.83;;;25.90;99.90;;;;;;5084985;28;20032;-75
2022/06/17 12:04:40;;;;;;;8.75;3.40;;;26.00;99.90;;;;;;5063752;28;20097;-75
2022/06/17 12:07:51;;;;;;;10.05;3.53;;;26.10;99.90;;;;;;5082246;28;20052;-75
2022/06/17 12:10:26;;;;;;;8.73;3.70;;;26.10;99.90;;;;;;5069227;28;20043;-75
2022/06/17 12:12:58;;;;;;;9.23;3.50;;;26.10;99.90;;;;;;5081228;28;20048;-75
2022/06/17 12:15:46;;;;;;;9.68;3.67;;;26.20;99.90;;;;;;5078041;28;20058;-75
2022/06/17 12:18:40;;;;;;;8.98;3.28;;;26.30;99.90;;;;;;5083219;28;20165;-75
2022/06/17 12:21:32;;;;;;;11.25;3.63;;;26.30;99.90;;;;;;5082169;28;20052;-75
2022/06/17 12:24:49;;;;;;;8.93;3.50;;;26.30;99.90;;;;;;5080706;28;20056;-75
2022/06/17 12:27:20;;;;;;;10.25;3.22;;;26.30;99.90;;;;;;5042785;28;20048;-76
2022/06/17 12:30:05;;;;;;;7.75;3.05;;;26.30;99.90;;;;;;5062858;28;20066;-75
2022/06/17 12:32:47;;;;;;;9.02;2.95;;;26.60;99.90;;;;;;5062086;28;20032;-75
2022/06/17 12:35:21;;;;;;;9.20;3.20;;;27.20;99.90;;;;;;5068923;28;20044;-75
2022/06/17 12:38:09;;;;;;;9.30;3.30;;;27.20;99.90;;;;;;5082951;28;20044;-75
2022/06/17 12:41:04;;;;;;;7.70;3.00;;;27.50;99.90;;;;;;5065903;28;20044;-75
2022/06/17 12:43:39;;;;;;;16.27;3.33;;;27.50;99.90;;;;;;5068294;28;20544;-75
2022/06/17 12:46:17;;;;;;;9.57;3.40;;;27.80;99.90;;;;;;5077167;28;20044;-75
2022/06/17 12:53:43;;;;;;;8.52;3.03;;;27.70;99.90;;;;;;5073053;28;20041;-75
2022/06/17 12:55:50;;;;;;;7.78;3.20;;;27.30;99.90;;;;;;5058694;28;20036;-75
2022/06/17 12:58:39;;;;;;;9.60;3.38;;;27.40;99.90;;;;;;5060052;28;20508;-75
2022/06/17 13:01:16;;;;;;;8.63;3.10;;;27.30;99.90;;;;;;5063226;28;20048;-75
2022/06/17 13:03:53;;;;;;;8.95;3.30;;;27.10;99.90;;;;;;5066446;28;20066;-75
2022/06/17 13:06:40;;;;;;;8.40;3.13;;;27.00;99.90;;;;;;5059691;28;20528;-75
2022/06/17 13:09:41;;;;;;;7.97;2.97;;;26.80;99.90;;;;;;5079698;28;20105;-75
2022/06/17 13:12:22;;;;;;;7.45;2.97;;;26.70;99.90;;;;;;5058770;28;20115;-75
2022/06/17 13:15:07;;;;;;;7.43;3.03;;;26.60;99.90;;;;;;5057684;28;20044;-75
2022/06/17 13:18:05;;;;;;;9.38;3.22;;;26.40;99.90;;;;;;5082319;28;20040;-75
2022/06/17 13:20:39;;;;;;;7.38;3.20;;;26.30;99.90;;;;;;5082432;28;20136;-75
2022/06/17 13:23:10;;;;;;;8.15;3.05;;;26.10;99.90;;;;;;5076678;28;20072;-75
2022/06/17 13:25:45;;;;;;;8.07;3.00;;;26.00;99.90;;;;;;5061657;28;20040;-75
2022/06/17 13:28:37;;;;;;;9.40;3.30;;;25.90;99.90;;;;;;5079958;28;20272;-76
2022/06/17 13:31:16;;;;;;;7.38;2.75;;;25.90;99.90;;;;;;5045522;28;20080;-75